Time;durP1;ratioP1;P1;durP2;ratioP2;P2;SDS_P1;SDS_P2;PMS_P1;PMS_P2;Temp;Humidity;BMP_temperature;BMP_pressure;BME280_temperature;BME280_humidity;BME280_pressure;Samples;Min_cycle;Max_cycle;Signal;HPM_P1;HPM_P2
2022/09/25 00:00:26;;;;;;;12.65;2.10;;;14.90;99.90;;;;;;4961208;28;20179;-72
2022/09/25 00:02:55;;;;;;;13.25;2.70;;;14.90;99.90;;;;;;4961876;28;20059;-74
2022/09/25 00:05:20;;;;;;;13.57;2.72;;;14.90;99.90;;;;;;4981503;28;20115;-75
2022/09/25 00:07:48;;;;;;;9.85;2.40;;;14.90;99.90;;;;;;4964469;28;20117;-75
2022/09/25 00:10:14;;;;;;;9.88;3.42;;;14.90;99.90;;;;;;4960106;28;20123;-72
2022/09/25 00:12:45;;;;;;;11.30;3.15;;;14.80;99.90;;;;;;4957925;28;20106;-74
2022/09/25 00:15:10;;;;;;;8.70;2.55;;;14.80;99.90;;;;;;4962765;28;20038;-74
2022/09/25 00:17:38;;;;;;;18.30;2.72;;;14.90;99.90;;;;;;4961884;28;20027;-74
2022/09/25 00:20:06;;;;;;;6.22;2.88;;;14.80;99.90;;;;;;4974697;28;20516;-74
2022/09/25 00:22:32;;;;;;;9.32;2.70;;;14.80;99.90;;;;;;4962740;28;20146;-75
2022/09/25 00:24:58;;;;;;;5.13;2.63;;;14.70;99.90;;;;;;4961439;28;20110;-74
2022/09/25 00:27:23;;;;;;;15.30;3.10;;;14.70;99.90;;;;;;4965034;28;20027;-75
2022/09/25 00:29:49;;;;;;;14.23;3.67;;;14.70;99.90;;;;;;4965666;28;20062;-75
2022/09/25 00:32:14;;;;;;;13.57;3.20;;;14.70;99.90;;;;;;4958963;28;20094;-74
2022/09/25 00:34:40;;;;;;;12.48;2.80;;;14.70;99.90;;;;;;4967369;28;20031;-74
2022/09/25 00:37:06;;;;;;;12.93;4.30;;;14.70;99.90;;;;;;4964541;28;20428;-74
2022/09/25 00:39:34;;;;;;;10.57;3.28;;;14.70;99.90;;;;;;4961978;28;20071;-72
2022/09/25 00:42:02;;;;;;;6.93;2.58;;;14.60;99.90;;;;;;4966102;28;20019;-74
2022/09/25 00:44:45;;;;;;;16.58;3.40;;;14.60;99.90;;;;;;4961899;28;20034;-74
2022/09/25 00:47:17;;;;;;;11.88;3.03;;;14.60;99.90;;;;;;4964500;28;20040;-74
2022/09/25 00:49:46;;;;;;;10.80;2.63;;;14.50;99.90;;;;;;4968452;28;20054;-75
2022/09/25 00:52:14;;;;;;;16.10;3.38;;;14.50;99.90;;;;;;4968533;28;20027;-75
2022/09/25 00:55:06;;;;;;;13.63;3.35;;;14.50;99.90;;;;;;4965181;28;20061;-75
2022/09/25 00:57:38;;;;;;;16.63;2.88;;;14.50;99.90;;;;;;4960560;28;20086;-74
2022/09/25 01:00:10;;;;;;;8.02;2.67;;;14.40;99.90;;;;;;4974409;28;20082;-75
2022/09/25 01:02:41;;;;;;;10.50;2.78;;;14.40;99.90;;;;;;4968606;28;20038;-74
2022/09/25 01:05:16;;;;;;;17.08;2.72;;;14.30;99.90;;;;;;4967679;28;20034;-73
2022/09/25 01:07:45;;;;;;;9.43;2.88;;;14.30;99.90;;;;;;4967981;28;20050;-74
2022/09/25 01:10:12;;;;;;;12.82;3.10;;;14.30;99.90;;;;;;4970193;28;20171;-75
2022/09/25 01:12:42;;;;;;;4.60;2.38;;;14.30;99.90;;;;;;4970054;28;20117;-74
2022/09/25 01:15:11;;;;;;;7.80;2.20;;;14.20;99.90;;;;;;4964935;28;20024;-75
2022/09/25 01:17:57;;;;;;;11.55;2.53;;;14.20;99.90;;;;;;4967173;28;20030;-76
2022/09/25 01:21:00;;;;;;;11.30;2.85;;;14.20;99.90;;;;;;4966274;28;20019;-74
2022/09/25 01:23:35;;;;;;;8.60;2.58;;;14.20;99.90;;;;;;4963572;28;20038;-75
2022/09/25 01:26:03;;;;;;;3.80;2.20;;;14.20;99.90;;;;;;4966861;28;20031;-75
2022/09/25 01:28:50;;;;;;;13.05;2.42;;;14.10;99.90;;;;;;4962142;28;20037;-73
2022/09/25 01:32:01;;;;;;;13.63;2.70;;;14.10;99.90;;;;;;4966492;28;20023;-74
2022/09/25 01:34:56;;;;;;;6.00;2.15;;;14.00;99.90;;;;;;4961998;28;20115;-74
2022/09/25 01:37:35;;;;;;;6.97;2.03;;;14.00;99.90;;;;;;4960321;28;20066;-74
2022/09/25 01:40:03;;;;;;;8.15;2.20;;;13.90;99.90;;;;;;4966950;28;20030;-75
2022/09/25 01:42:38;;;;;;;15.15;2.42;;;13.90;99.90;;;;;;4966804;28;20535;-74
2022/09/25 01:45:08;;;;;;;7.72;2.35;;;13.90;99.90;;;;;;4963346;28;20026;-75
2022/09/25 01:47:39;;;;;;;11.95;2.85;;;13.80;99.90;;;;;;4970823;28;20046;-73
2022/09/25 01:50:24;;;;;;;8.35;2.50;;;13.90;99.90;;;;;;4962788;28;20115;-75
2022/09/25 01:52:58;;;;;;;6.28;2.08;;;13.80;99.90;;;;;;4965382;28;20027;-75
2022/09/25 01:55:34;;;;;;;9.40;2.15;;;13.80;99.90;;;;;;4964691;28;20038;-76
2022/09/25 01:58:27;;;;;;;9.65;3.10;;;13.80;99.90;;;;;;4978171;28;20047;-75
2022/09/25 02:00:58;;;;;;;4.57;2.00;;;13.90;99.90;;;;;;4967165;28;20059;-74
2022/09/25 02:03:35;;;;;;;10.73;2.00;;;13.80;99.90;;;;;;4968736;28;20042;-74
2022/09/25 02:06:04;;;;;;;9.55;2.30;;;13.80;99.90;;;;;;4964391;28;20023;-74
2022/09/25 02:08:43;;;;;;;7.53;2.45;;;13.80;99.90;;;;;;4964730;28;20035;-74
2022/09/25 02:11:09;;;;;;;8.98;2.25;;;13.90;99.90;;;;;;4962192;28;20477;-74
2022/09/25 02:13:46;;;;;;;8.07;2.20;;;13.80;99.90;;;;;;4961035;28;20030;-75
2022/09/25 02:16:31;;;;;;;10.02;2.15;;;13.80;99.90;;;;;;4958442;28;20097;-75
2022/09/25 02:22:03;;;;;;;10.95;2.28;;;13.90;99.90;;;;;;4967571;28;20037;-76
2022/09/25 02:24:37;;;;;;;13.05;2.22;;;13.80;99.90;;;;;;4961009;28;20351;-75
2022/09/25 02:27:03;;;;;;;11.27;2.28;;;13.80;99.90;;;;;;4968284;28;20027;-74
2022/09/25 02:29:29;;;;;;;11.77;2.05;;;13.80;99.90;;;;;;4971849;28;20471;-75
2022/09/25 02:32:01;;;;;;;6.60;2.25;;;13.90;99.90;;;;;;4968806;28;20019;-75
2022/09/25 02:34:27;;;;;;;12.02;2.15;;;13.80;99.90;;;;;;4968891;28;20030;-74
2022/09/25 02:36:55;;;;;;;18.35;2.00;;;13.80;99.90;;;;;;4961994;28;20035;-75
2022/09/25 02:39:23;;;;;;;4.43;2.00;;;13.90;99.90;;;;;;4967380;28;20027;-75
2022/09/25 02:42:08;;;;;;;10.20;2.00;;;13.80;99.90;;;;;;4962962;28;20034;-75
2022/09/25 02:45:06;;;;;;;15.15;2.90;;;13.70;99.90;;;;;;4967629;28;20018;-75
2022/09/25 02:48:02;;;;;;;11.43;2.35;;;13.70;99.90;;;;;;4963011;28;20035;-75
2022/09/25 02:50:46;;;;;;;13.02;2.00;;;13.70;99.90;;;;;;4962490;28;20035;-75
2022/09/25 02:53:28;;;;;;;7.65;2.20;;;13.70;99.90;;;;;;4964660;28;20015;-74
2022/09/25 02:56:03;;;;;;;2.60;1.73;;;13.70;99.90;;;;;;4961462;28;20042;-75
2022/09/25 02:58:32;;;;;;;4.50;2.20;;;13.60;99.90;;;;;;4962058;28;20127;-75
2022/09/25 03:01:03;;;;;;;9.27;1.98;;;13.60;99.90;;;;;;4965588;28;20829;-75
2022/09/25 03:03:35;;;;;;;10.63;2.38;;;13.60;99.90;;;;;;4964582;28;20082;-75
2022/09/25 03:06:03;;;;;;;11.70;2.15;;;13.50;99.90;;;;;;4964702;28;20340;-75
2022/09/25 03:08:40;;;;;;;6.95;2.10;;;13.50;99.90;;;;;;4964987;28;20019;-74
2022/09/25 03:11:07;;;;;;;12.82;2.30;;;13.50;99.90;;;;;;4969287;28;20027;-75
2022/09/25 03:13:38;;;;;;;6.90;1.98;;;13.50;99.90;;;;;;4963438;28;20026;-74
2022/09/25 03:16:10;;;;;;;8.45;2.03;;;13.40;99.90;;;;;;4961780;28;20066;-75
2022/09/25 03:18:38;;;;;;;9.80;2.03;;;13.40;99.90;;;;;;4961781;28;20041;-75
2022/09/25 03:21:06;;;;;;;5.32;1.98;;;13.40;99.90;;;;;;4962997;28;20034;-75
2022/09/25 03:23:32;;;;;;;9.27;2.75;;;13.40;99.90;;;;;;4945396;28;20042;-75
2022/09/25 03:25:58;;;;;;;11.80;2.08;;;13.30;99.90;;;;;;4965675;28;20034;-75
2022/09/25 03:28:26;;;;;;;12.13;2.40;;;13.30;99.90;;;;;;4959597;28;20409;-75
2022/09/25 03:31:04;;;;;;;8.23;1.95;;;13.30;99.90;;;;;;4965931;28;20035;-74
2022/09/25 03:33:33;;;;;;;10.15;2.08;;;13.30;99.90;;;;;;4960762;28;20023;-74
2022/09/25 03:36:05;;;;;;;10.45;1.88;;;13.20;99.90;;;;;;4961777;28;20098;-76
2022/09/25 03:38:31;;;;;;;6.27;2.50;;;13.20;99.90;;;;;;4964715;28;20452;-75
2022/09/25 03:40:57;;;;;;;10.30;1.75;;;13.20;99.90;;;;;;4966879;28;20030;-75
2022/09/25 03:43:23;;;;;;;10.95;2.22;;;13.20;99.90;;;;;;4964264;28;20033;-75
2022/09/25 03:45:48;;;;;;;6.50;2.38;;;13.20;99.90;;;;;;4962794;28;20035;-73
2022/09/25 03:48:14;;;;;;;5.15;2.15;;;13.20;99.90;;;;;;4969686;28;20086;-75
2022/09/25 03:50:40;;;;;;;13.02;2.30;;;13.20;99.90;;;;;;4967809;28;20026;-75
2022/09/25 03:53:06;;;;;;;9.88;2.15;;;13.10;99.90;;;;;;4962272;28;20027;-75
2022/09/25 03:55:34;;;;;;;13.00;2.53;;;13.10;99.90;;;;;;4964990;28;20038;-72
2022/09/25 03:58:00;;;;;;;11.20;2.17;;;13.10;99.90;;;;;;4964472;28;20019;-75
2022/09/25 04:00:28;;;;;;;10.32;1.92;;;13.10;99.90;;;;;;4966598;28;20029;-75
2022/09/25 04:02:58;;;;;;;4.97;1.98;;;13.10;99.90;;;;;;4964502;28;20038;-74
2022/09/25 04:05:24;;;;;;;8.85;2.10;;;13.10;99.90;;;;;;4959893;28;20341;-75
2022/09/25 04:07:50;;;;;;;8.10;2.05;;;13.00;99.90;;;;;;4963880;28;20038;-75
2022/09/25 04:10:15;;;;;;;8.63;2.60;;;13.00;99.90;;;;;;4963990;28;20356;-76
2022/09/25 04:12:42;;;;;;;9.13;1.95;;;13.00;99.90;;;;;;4961174;28;20343;-76
2022/09/25 04:15:10;;;;;;;12.60;2.75;;;12.90;99.90;;;;;;4965655;28;20114;-76
2022/09/25 04:17:36;;;;;;;9.98;2.17;;;12.90;99.90;;;;;;4960776;28;20038;-75
2022/09/25 04:20:01;;;;;;;4.50;1.77;;;12.80;99.90;;;;;;4961933;28;20015;-76
2022/09/25 04:22:27;;;;;;;7.20;2.00;;;12.80;99.90;;;;;;4962673;28;20384;-75
2022/09/25 04:24:56;;;;;;;7.22;1.70;;;12.70;99.90;;;;;;4959149;28;20054;-75
2022/09/25 04:27:25;;;;;;;4.65;2.22;;;12.70;99.90;;;;;;4958547;28;20082;-75
2022/09/25 04:29:51;;;;;;;6.07;2.13;;;12.60;99.90;;;;;;4960130;28;20031;-75
2022/09/25 04:35:01;;;;;;;8.93;2.30;;;12.40;99.90;;;;;;4960087;28;20372;-75
2022/09/25 04:37:29;;;;;;;11.60;2.15;;;12.40;99.90;;;;;;4964687;28;20023;-75
2022/09/25 04:39:56;;;;;;;6.45;1.95;;;12.40;99.90;;;;;;4967581;28;20057;-75
2022/09/25 04:42:25;;;;;;;8.35;1.92;;;12.30;99.90;;;;;;4966600;28;20035;-74
2022/09/25 04:44:54;;;;;;;12.07;2.03;;;12.20;99.90;;;;;;4967329;28;20031;-75
2022/09/25 04:47:21;;;;;;;3.20;2.00;;;12.20;99.90;;;;;;4972408;28;20677;-75
2022/09/25 04:49:47;;;;;;;7.78;2.13;;;12.10;99.90;;;;;;4967432;28;20447;-74
2022/09/25 04:52:19;;;;;;;6.22;2.03;;;12.10;99.90;;;;;;4967520;28;20042;-75
2022/09/25 04:54:48;;;;;;;6.28;2.08;;;12.10;99.90;;;;;;4967760;28;20460;-75
2022/09/25 04:57:16;;;;;;;4.97;1.83;;;12.00;99.90;;;;;;4965338;28;20057;-75
2022/09/25 04:59:41;;;;;;;12.80;2.33;;;12.00;99.90;;;;;;4970277;28;20042;-75
2022/09/25 05:02:07;;;;;;;7.43;2.35;;;12.00;99.90;;;;;;4965297;28;20023;-75
2022/09/25 05:04:33;;;;;;;8.27;2.25;;;11.90;99.90;;;;;;4967584;28;20023;-75
2022/09/25 05:06:58;;;;;;;4.30;1.70;;;11.90;99.90;;;;;;4967306;28;20523;-74
2022/09/25 05:09:24;;;;;;;13.68;1.98;;;11.90;99.90;;;;;;4975613;28;20027;-75
2022/09/25 05:11:50;;;;;;;7.97;1.75;;;11.90;99.90;;;;;;4965589;28;20035;-75
2022/09/25 05:14:15;;;;;;;5.65;2.40;;;11.90;99.90;;;;;;4966345;28;20023;-75
2022/09/25 05:16:41;;;;;;;6.20;2.13;;;11.80;99.90;;;;;;4966738;28;20030;-74
2022/09/25 05:19:07;;;;;;;11.85;2.25;;;11.80;99.90;;;;;;4970764;28;20033;-75
2022/09/25 05:21:33;;;;;;;6.13;2.10;;;11.80;99.90;;;;;;4969726;28;20054;-74
2022/09/25 05:24:00;;;;;;;9.60;2.40;;;11.80;99.90;;;;;;4964359;28;20075;-75
2022/09/25 05:26:29;;;;;;;5.15;2.15;;;11.80;99.90;;;;;;4968389;28;20121;-75
2022/09/25 05:28:54;;;;;;;6.95;1.88;;;11.70;99.90;;;;;;4969087;28;20114;-74
2022/09/25 05:31:20;;;;;;;9.63;2.17;;;11.70;99.90;;;;;;4968240;28;20105;-75
2022/09/25 05:33:47;;;;;;;4.93;2.20;;;11.70;99.90;;;;;;4967636;28;20022;-73
2022/09/25 05:36:13;;;;;;;6.90;2.42;;;11.60;99.90;;;;;;4967507;28;20018;-76
2022/09/25 05:38:39;;;;;;;12.38;1.80;;;11.60;99.90;;;;;;4967470;28;20035;-74
2022/09/25 05:41:13;;;;;;;9.43;2.08;;;11.60;99.90;;;;;;4967200;28;20099;-75
2022/09/25 05:43:42;;;;;;;9.52;2.20;;;11.60;99.90;;;;;;4969246;28;20029;-75
2022/09/25 05:46:10;;;;;;;10.25;2.15;;;11.60;99.90;;;;;;4967598;28;20395;-75
2022/09/25 05:48:36;;;;;;;5.05;2.40;;;11.60;99.90;;;;;;4963677;28;20380;-75
2022/09/25 05:51:02;;;;;;;9.50;2.47;;;11.60;99.90;;;;;;4965488;28;20031;-75
2022/09/25 05:53:29;;;;;;;8.02;2.55;;;11.60;99.90;;;;;;4970890;28;20121;-75
2022/09/25 05:56:00;;;;;;;13.15;2.72;;;11.60;99.90;;;;;;4963101;28;20364;-75
2022/09/25 05:58:32;;;;;;;8.13;2.90;;;11.60;99.90;;;;;;4964039;28;20023;-75
2022/09/25 06:01:03;;;;;;;8.65;2.47;;;11.70;99.90;;;;;;4963868;28;20118;-74
2022/09/25 06:03:29;;;;;;;6.32;2.80;;;11.60;99.90;;;;;;4965438;28;20043;-75
2022/09/25 06:05:56;;;;;;;4.93;2.50;;;11.60;99.90;;;;;;4964921;28;20042;-75
2022/09/25 06:08:22;;;;;;;6.53;2.97;;;11.60;99.90;;;;;;4972198;28;20127;-75
2022/09/25 06:10:55;;;;;;;5.57;2.10;;;11.70;99.90;;;;;;4963125;28;20039;-73
2022/09/25 06:13:24;;;;;;;10.85;3.22;;;11.70;99.90;;;;;;4961482;28;20381;-75
2022/09/25 06:15:51;;;;;;;7.95;2.38;;;11.80;99.90;;;;;;4966321;28;20718;-75
2022/09/25 06:18:20;;;;;;;9.85;2.33;;;11.80;99.90;;;;;;4961701;28;20027;-75
2022/09/25 06:20:48;;;;;;;6.55;3.13;;;11.80;99.90;;;;;;4962981;28;20551;-75
2022/09/25 06:23:14;;;;;;;7.03;2.35;;;11.90;99.90;;;;;;4963281;28;20046;-75
2022/09/25 06:25:40;;;;;;;4.63;2.40;;;11.90;99.90;;;;;;4966994;28;20341;-75
2022/09/25 06:28:12;;;;;;;5.32;2.67;;;11.90;99.90;;;;;;4964519;28;20045;-75
2022/09/25 06:30:38;;;;;;;8.13;2.83;;;11.90;99.90;;;;;;4965263;28;20101;-75
2022/09/25 06:33:10;;;;;;;11.13;3.22;;;11.90;99.90;;;;;;4964464;28;20129;-74
2022/09/25 06:35:41;;;;;;;9.35;3.10;;;12.00;99.90;;;;;;4965279;28;20101;-74
2022/09/25 06:38:10;;;;;;;7.43;2.78;;;12.10;99.90;;;;;;4964979;28;20034;-75
2022/09/25 06:40:39;;;;;;;6.78;2.80;;;12.10;99.90;;;;;;4968618;28;20039;-75
2022/09/25 06:43:08;;;;;;;4.60;2.75;;;12.20;99.90;;;;;;4963780;28;20027;-75
2022/09/25 06:45:34;;;;;;;8.63;3.15;;;12.20;99.90;;;;;;4963152;28;20035;-75
2022/09/25 06:48:07;;;;;;;8.05;2.80;;;12.30;99.90;;;;;;4963452;28;20194;-75
2022/09/25 06:50:43;;;;;;;14.45;2.83;;;12.30;99.90;;;;;;4963022;28;20476;-75
2022/09/25 06:53:12;;;;;;;7.30;2.80;;;12.30;99.90;;;;;;4961728;28;20058;-75
2022/09/25 06:55:39;;;;;;;6.55;3.22;;;12.30;99.90;;;;;;4964299;28;20031;-75
2022/09/25 06:58:07;;;;;;;11.07;3.60;;;12.30;99.90;;;;;;4957284;28;20109;-74
2022/09/25 07:00:34;;;;;;;9.43;3.38;;;12.30;99.90;;;;;;4962515;28;20114;-75
2022/09/25 07:05:46;;;;;;;6.90;3.10;;;12.40;99.90;;;;;;4962476;28;20460;-75
2022/09/25 07:08:15;;;;;;;10.02;3.53;;;12.60;99.90;;;;;;4957735;28;20034;-74
2022/09/25 07:10:54;;;;;;;6.07;2.55;;;12.60;99.90;;;;;;4961518;28;20372;-75
2022/09/25 07:13:26;;;;;;;6.05;2.70;;;12.70;99.90;;;;;;4958218;28;20353;-75
2022/09/25 07:16:01;;;;;;;6.65;2.28;;;12.80;99.90;;;;;;4965237;28;20711;-75
2022/09/25 07:18:28;;;;;;;7.72;2.80;;;12.70;99.90;;;;;;4965949;28;20029;-74
2022/09/25 07:21:06;;;;;;;5.05;2.30;;;12.80;99.90;;;;;;4960282;28;20023;-74
2022/09/25 07:23:35;;;;;;;11.23;2.72;;;12.90;99.90;;;;;;4965702;28;20130;-75
2022/09/25 07:26:23;;;;;;;5.20;3.13;;;13.00;99.90;;;;;;4965578;28;20055;-75
2022/09/25 07:28:57;;;;;;;3.97;2.20;;;13.00;99.90;;;;;;4960013;28;20034;-76
2022/09/25 07:31:25;;;;;;;7.15;2.63;;;13.10;99.90;;;;;;4961306;28;20520;-75
2022/09/25 07:33:55;;;;;;;4.22;2.70;;;13.30;99.90;;;;;;4960746;28;20033;-75
2022/09/25 07:36:23;;;;;;;5.50;2.35;;;13.40;99.90;;;;;;4961132;28;20027;-76
2022/09/25 07:38:50;;;;;;;8.32;2.65;;;13.40;99.90;;;;;;4962361;28;20049;-75
2022/09/25 07:41:21;;;;;;;5.10;2.33;;;13.50;99.90;;;;;;4964926;28;20015;-75
2022/09/25 07:43:51;;;;;;;4.85;2.65;;;13.60;99.90;;;;;;4960874;28;20035;-74
2022/09/25 07:46:19;;;;;;;12.65;2.60;;;13.70;99.90;;;;;;4964257;28;20049;-75
2022/09/25 07:48:55;;;;;;;10.20;2.72;;;13.80;99.90;;;;;;4960999;28;20027;-74
2022/09/25 07:51:21;;;;;;;7.38;2.20;;;13.80;99.90;;;;;;4959718;28;20715;-76
2022/09/25 07:53:47;;;;;;;7.78;2.35;;;13.90;99.90;;;;;;4960305;28;20038;-75
2022/09/25 07:56:16;;;;;;;12.52;2.47;;;14.00;99.90;;;;;;4959508;28;20448;-75
2022/09/25 07:58:41;;;;;;;8.57;2.42;;;14.10;99.90;;;;;;4963450;28;20026;-74
2022/09/25 08:01:12;;;;;;;8.48;2.15;;;14.30;99.90;;;;;;4959425;28;20035;-75
2022/09/25 08:03:38;;;;;;;8.55;2.47;;;14.40;99.90;;;;;;4957298;28;20036;-75
2022/09/25 08:06:08;;;;;;;9.10;2.13;;;14.60;99.90;;;;;;4962091;28;20023;-75
2022/09/25 08:08:34;;;;;;;11.60;2.58;;;14.80;99.90;;;;;;4962283;28;20143;-76
2022/09/25 08:11:08;;;;;;;5.55;2.10;;;14.90;99.90;;;;;;4959931;28;20407;-75
2022/09/25 08:13:36;;;;;;;6.13;2.05;;;15.00;99.90;;;;;;4966966;28;20038;-76
2022/09/25 08:16:04;;;;;;;8.27;1.98;;;15.10;99.90;;;;;;4960729;28;20110;-75
2022/09/25 08:18:31;;;;;;;10.77;2.10;;;15.30;99.90;;;;;;4962722;28;20085;-75
2022/09/25 08:21:05;;;;;;;8.00;2.45;;;15.40;99.90;;;;;;4964484;28;20383;-76
2022/09/25 08:23:31;;;;;;;10.95;2.33;;;15.60;99.90;;;;;;4959364;28;20031;-76
2022/09/25 08:25:58;;;;;;;8.73;2.10;;;15.80;99.90;;;;;;4966933;28;20027;-75
2022/09/25 08:28:24;;;;;;;7.60;2.08;;;15.90;99.90;;;;;;4961389;28;20121;-75
2022/09/25 08:30:49;;;;;;;9.27;2.15;;;16.10;99.90;;;;;;4960673;28;20066;-75
2022/09/25 08:33:18;;;;;;;6.90;1.95;;;16.30;99.90;;;;;;4959669;28;20113;-75
2022/09/25 08:35:53;;;;;;;4.85;1.88;;;16.50;99.90;;;;;;4963782;28;20389;-75
2022/09/25 08:38:18;;;;;;;5.63;1.90;;;16.80;99.90;;;;;;4957345;28;20463;-75
2022/09/25 08:41:02;;;;;;;7.75;1.70;;;17.10;99.90;;;;;;4957972;28;20031;-75
2022/09/25 08:43:30;;;;;;;7.18;1.77;;;17.40;99.90;;;;;;4957744;28;20079;-75
2022/09/25 08:49:05;;;;;;;8.80;1.52;;;18.00;99.90;;;;;;4959847;28;20034;-74
2022/09/25 08:51:43;;;;;;;9.65;1.85;;;18.20;99.90;;;;;;4960778;28;20146;-75
2022/09/25 08:54:22;;;;;;;10.68;1.83;;;18.50;99.90;;;;;;4979597;28;20411;-75
2022/09/25 08:56:53;;;;;;;9.02;1.75;;;18.90;99.90;;;;;;4985629;28;20121;-75
2022/09/25 08:59:31;;;;;;;4.70;1.23;;;19.00;99.90;;;;;;4978181;28;20046;-75
2022/09/25 09:02:02;;;;;;;7.15;1.30;;;19.30;99.90;;;;;;4980939;28;20383;-76
2022/09/25 09:04:32;;;;;;;11.00;2.10;;;19.70;99.90;;;;;;4981199;28;20046;-75
2022/09/25 09:07:09;;;;;;;4.75;1.45;;;20.40;99.90;;;;;;4968345;28;20042;-75
2022/09/25 09:09:49;;;;;;;5.38;1.70;;;21.20;99.90;;;;;;4981073;28;20116;-73
2022/09/25 09:12:30;;;;;;;10.77;2.00;;;22.10;98.00;;;;;;4966218;28;20035;-74
2022/09/25 09:15:05;;;;;;;9.02;1.58;;;22.90;95.90;;;;;;4983372;28;20088;-75
2022/09/25 09:17:39;;;;;;;7.10;1.13;;;23.20;92.70;;;;;;4987020;28;20041;-75
2022/09/25 09:20:17;;;;;;;8.13;1.10;;;23.60;92.00;;;;;;4985104;28;20134;-75
2022/09/25 09:22:51;;;;;;;7.88;1.50;;;24.20;91.70;;;;;;4983858;28;20089;-75
2022/09/25 09:25:34;;;;;;;8.45;1.35;;;24.80;89.10;;;;;;4972633;28;20034;-74
2022/09/25 09:28:05;;;;;;;4.43;1.20;;;25.10;88.40;;;;;;4961409;28;20035;-75
2022/09/25 09:30:37;;;;;;;12.98;3.08;;;26.00;85.30;;;;;;4967012;28;20049;-75
2022/09/25 09:33:12;;;;;;;8.55;1.73;;;26.00;79.60;;;;;;4963578;28;20023;-75
2022/09/25 09:35:56;;;;;;;5.95;1.52;;;25.80;78.80;;;;;;4963051;28;20023;-74
2022/09/25 09:38:31;;;;;;;7.15;1.55;;;25.60;77.90;;;;;;4966193;28;20030;-74
2022/09/25 09:41:27;;;;;;;10.95;1.85;;;24.80;79.50;;;;;;4967577;28;20161;-75
2022/09/25 09:44:32;;;;;;;4.75;1.20;;;24.60;77.80;;;;;;4968166;28;20487;-74
2022/09/25 09:47:30;;;;;;;4.93;1.10;;;24.70;78.20;;;;;;4957828;28;20855;-74
2022/09/25 09:50:06;;;;;;;6.65;1.13;;;24.80;77.00;;;;;;4936131;28;20054;-74
2022/09/25 09:52:41;;;;;;;5.90;1.17;;;24.70;74.10;;;;;;4964851;28;20503;-74
2022/09/25 09:55:21;;;;;;;2.55;1.00;;;23.90;78.00;;;;;;4965086;28;20039;-74
2022/09/25 09:57:51;;;;;;;10.02;1.60;;;23.20;79.60;;;;;;4967661;28;20075;-74
2022/09/25 10:00:22;;;;;;;9.57;1.58;;;22.40;80.20;;;;;;4967134;28;20030;-74
2022/09/25 10:03:10;;;;;;;5.25;1.27;;;21.70;82.70;;;;;;4967566;28;20154;-74
2022/09/25 10:05:43;;;;;;;8.05;1.65;;;21.80;83.60;;;;;;4966767;28;20027;-74
2022/09/25 10:08:10;;;;;;;7.80;1.30;;;22.00;82.90;;;;;;4963682;28;20031;-74
2022/09/25 10:10:40;;;;;;;4.75;1.55;;;22.50;82.80;;;;;;4970537;28;20026;-74
2022/09/25 10:13:21;;;;;;;3.92;1.23;;;22.90;80.70;;;;;;4962802;28;20035;-74
2022/09/25 10:15:59;;;;;;;4.35;1.13;;;23.10;79.70;;;;;;4982591;28;20034;-74
2022/09/25 10:18:30;;;;;;;4.22;1.05;;;23.50;80.90;;;;;;4963444;28;20142;-75
2022/09/25 10:21:11;;;;;;;6.20;1.58;;;23.50;78.80;;;;;;4961711;28;20027;-75
2022/09/25 10:23:38;;;;;;;8.95;1.00;;;23.10;81.10;;;;;;4965153;28;20027;-74
2022/09/25 10:26:40;;;;;;;3.00;1.10;;;22.70;78.20;;;;;;4962648;28;20114;-73
2022/09/25 10:29:21;;;;;;;8.60;1.25;;;21.90;79.00;;;;;;4961643;28;20027;-74
2022/09/25 10:31:55;;;;;;;3.28;0.88;;;21.30;80.90;;;;;;4977953;28;20039;-74
2022/09/25 10:34:23;;;;;;;5.40;1.45;;;21.60;81.20;;;;;;4960618;28;20393;-74
2022/09/25 10:36:53;;;;;;;3.03;1.40;;;22.10;81.90;;;;;;4966008;28;20027;-74
2022/09/25 10:39:41;;;;;;;8.35;1.40;;;22.80;78.30;;;;;;4963609;28;20027;-74
2022/09/25 10:42:33;;;;;;;2.15;1.08;;;23.60;74.60;;;;;;4961593;28;20611;-73
2022/09/25 10:44:58;;;;;;;4.90;1.10;;;24.00;71.70;;;;;;4967020;28;20058;-75
2022/09/25 10:50:14;;;;;;;3.88;1.05;;;24.90;69.80;;;;;;4963400;28;20041;-76
2022/09/25 10:52:50;;;;;;;3.67;1.00;;;24.70;70.60;;;;;;4963099;28;20023;-75
2022/09/25 10:55:29;;;;;;;1.50;1.38;;;24.90;67.90;;;;;;4963056;28;20110;-74
2022/09/25 10:58:10;;;;;;;6.75;1.35;;;25.00;66.80;;;;;;4964534;28;20023;-74
2022/09/25 11:00:51;;;;;;;4.65;1.00;;;24.40;64.90;;;;;;4961193;28;20031;-75
2022/09/25 11:03:20;;;;;;;4.57;1.17;;;23.90;67.60;;;;;;4962031;28;20031;-75
2022/09/25 11:06:06;;;;;;;4.15;0.95;;;23.00;69.50;;;;;;4961713;28;20079;-74
2022/09/25 11:08:37;;;;;;;5.32;1.10;;;22.40;71.60;;;;;;4961306;28;20023;-74
2022/09/25 11:11:04;;;;;;;2.47;1.25;;;22.20;73.80;;;;;;4962253;28;20062;-74
2022/09/25 11:13:46;;;;;;;9.70;1.08;;;22.40;77.30;;;;;;4976464;28;20019;-76
2022/09/25 11:16:14;;;;;;;7.53;1.17;;;21.90;74.30;;;;;;4961413;28;20466;-75
2022/09/25 11:18:42;;;;;;;4.05;1.17;;;21.50;75.90;;;;;;4959799;28;20500;-75
2022/09/25 11:21:22;;;;;;;2.03;0.75;;;21.60;77.30;;;;;;4983143;28;20036;-75
2022/09/25 11:24:03;;;;;;;4.50;1.05;;;22.10;73.00;;;;;;4960476;28;20038;-75
2022/09/25 11:27:01;;;;;;;3.58;0.80;;;22.80;71.70;;;;;;4965855;28;20115;-75
2022/09/25 11:29:47;;;;;;;5.75;0.90;;;23.20;68.50;;;;;;4959834;28;20054;-75
2022/09/25 11:32:19;;;;;;;4.18;1.23;;;23.60;67.60;;;;;;4962228;28;20034;-75
2022/09/25 11:35:02;;;;;;;3.28;1.10;;;23.70;68.60;;;;;;4964544;28;20070;-74
2022/09/25 11:37:51;;;;;;;;;;;24.00;67.00;;;;;;4964812;28;20266;-75
2022/09/25 11:43:19;;;;;;;2.65;0.98;;;24.40;64.60;;;;;;4964777;28;20166;-73
2022/09/25 11:45:52;;;;;;;7.78;1.30;;;24.70;67.80;;;;;;4960859;28;20417;-75
2022/09/25 11:48:48;;;;;;;4.18;1.23;;;24.30;66.90;;;;;;4961410;28;20038;-74
2022/09/25 11:51:17;;;;;;;2.80;0.90;;;23.40;65.60;;;;;;4962934;28;20035;-74
2022/09/25 11:54:15;;;;;;;8.75;1.52;;;23.60;67.20;;;;;;4962261;28;20101;-73
2022/09/25 11:57:01;;;;;;;6.43;1.02;;;24.30;64.90;;;;;;4963551;28;20090;-71
2022/09/25 11:59:38;;;;;;;7.82;1.00;;;24.70;61.70;;;;;;4952151;28;20452;-75
2022/09/25 12:02:23;;;;;;;4.55;1.27;;;24.90;61.50;;;;;;4964538;28;20099;-72
2022/09/25 12:05:17;;;;;;;3.13;0.93;;;24.70;62.20;;;;;;4963481;28;20487;-75
2022/09/25 12:07:46;;;;;;;5.38;1.92;;;23.40;61.30;;;;;;4941360;28;20086;-71
2022/09/25 12:10:30;;;;;;;3.92;1.20;;;22.70;65.00;;;;;;4978401;28;20473;-75
2022/09/25 12:13:02;;;;;;;2.72;1.08;;;22.30;67.60;;;;;;4959871;28;20352;-74
2022/09/25 12:15:52;;;;;;;3.15;0.90;;;22.20;68.80;;;;;;4961158;28;20404;-74
2022/09/25 12:18:32;;;;;;;2.92;0.75;;;22.20;68.40;;;;;;4977533;28;20031;-75
2022/09/25 12:21:32;;;;;;;2.85;0.77;;;22.00;69.60;;;;;;4963677;28;20031;-76
2022/09/25 12:24:01;;;;;;;4.22;0.88;;;22.20;67.30;;;;;;4951149;28;20062;-73
2022/09/25 12:26:51;;;;;;;4.35;1.08;;;22.10;68.80;;;;;;4964317;28;20037;-75
2022/09/25 12:29:32;;;;;;;3.92;0.65;;;22.20;67.50;;;;;;4959124;28;20134;-75
2022/09/25 12:32:19;;;;;;;3.45;0.80;;;21.80;65.20;;;;;;4964887;28;20059;-73
2022/09/25 12:35:21;;;;;;;5.15;0.90;;;21.30;67.30;;;;;;4958511;28;20051;-73
2022/09/25 12:37:59;;;;;;;5.72;1.13;;;21.20;71.50;;;;;;4950257;28;20027;-75
2022/09/25 12:40:33;;;;;;;2.35;0.82;;;21.10;72.20;;;;;;4963691;28;20035;-73
2022/09/25 12:43:32;;;;;;;3.13;0.80;;;21.10;73.20;;;;;;4963285;28;20018;-73
2022/09/25 12:46:26;;;;;;;3.60;0.90;;;21.00;74.10;;;;;;4961585;28;20531;-75
2022/09/25 12:49:26;;;;;;;3.70;1.10;;;21.00;73.80;;;;;;4961734;28;20043;-72
2022/09/25 12:51:56;;;;;;;5.65;1.52;;;20.80;75.80;;;;;;4962004;28;20495;-75
2022/09/25 12:54:27;;;;;;;3.80;2.30;;;20.70;75.40;;;;;;4964014;28;20029;-75
2022/09/25 12:57:17;;;;;;;4.00;1.40;;;20.70;76.90;;;;;;4966009;28;20126;-76
2022/09/25 13:00:02;;;;;;;4.43;0.90;;;20.50;76.40;;;;;;4969798;28;20034;-75
2022/09/25 13:02:47;;;;;;;6.70;1.20;;;21.10;76.40;;;;;;4967155;28;20043;-75
2022/09/25 13:05:36;;;;;;;4.43;1.13;;;22.20;72.60;;;;;;4966208;28;20039;-75
2022/09/25 13:08:18;;;;;;;5.78;1.13;;;22.70;72.00;;;;;;4965972;28;20042;-76
2022/09/25 13:16:00;;;;;;;8.63;2.05;;;23.90;70.10;;;;;;5954117;23;20022;-73
2022/09/25 13:18:34;;;;;;;4.65;1.92;;;24.50;65.50;;;;;;4961872;28;20105;-74
2022/09/25 13:21:39;;;;;;;2.65;1.20;;;24.90;63.50;;;;;;4955944;28;20074;-75
2022/09/25 13:24:08;;;;;;;2.90;1.23;;;25.10;62.10;;;;;;4964354;28;20039;-75
2022/09/25 13:26:51;;;;;;;3.15;1.20;;;25.20;59.40;;;;;;4960749;28;20460;-76
2022/09/25 13:29:17;;;;;;;5.13;1.40;;;25.40;62.00;;;;;;4965017;28;20110;-75
2022/09/25 13:31:44;;;;;;;1.95;0.98;;;25.20;60.40;;;;;;4964821;28;20768;-74
2022/09/25 13:34:13;;;;;;;7.38;1.70;;;25.20;62.00;;;;;;4950848;28;20031;-75
2022/09/25 13:36:46;;;;;;;5.07;1.05;;;25.60;60.50;;;;;;4965135;28;20675;-74
2022/09/25 13:42:20;;;;;;;2.22;1.25;;;24.90;60.00;;;;;;4965758;28;20491;-75